Time;durP1;ratioP1;P1;durP2;ratioP2;P2;SDS_P1;SDS_P2;PMS_P1;PMS_P2;Temp;Humidity;BMP_temperature;BMP_pressure;BME280_temperature;BME280_humidity;BME280_pressure;Samples;Min_cycle;Max_cycle;Signal;HPM_P1;HPM_P2
2022/11/06 00:02:16;;;;;;;1.25;1.15;;;13.90;59.10;;;;;;5007147;28;45263;-75
2022/11/06 00:04:43;;;;;;;0.95;0.95;;;13.90;59.10;;;;;;5007571;28;45319;-75
2022/11/06 00:07:09;;;;;;;1.17;1.10;;;13.90;59.10;;;;;;5007261;28;46379;-75
2022/11/06 00:09:36;;;;;;;1.05;1.02;;;13.90;59.10;;;;;;5007253;28;45351;-75
2022/11/06 00:12:03;;;;;;;1.55;0.93;;;13.90;59.10;;;;;;5007446;28;45383;-75
2022/11/06 00:14:30;;;;;;;1.20;0.88;;;13.90;59.10;;;;;;5007474;28;45249;-75
2022/11/06 00:16:58;;;;;;;2.08;1.02;;;13.90;59.10;;;;;;5006744;28;46382;-75
2022/11/06 00:19:25;;;;;;;1.10;1.05;;;13.90;59.10;;;;;;5007149;28;45304;-76
2022/11/06 00:21:52;;;;;;;0.85;0.85;;;13.90;59.10;;;;;;5007193;28;45251;-75
2022/11/06 00:24:19;;;;;;;1.20;1.10;;;13.90;59.10;;;;;;5007680;28;45209;-75
2022/11/06 00:26:46;;;;;;;1.10;1.10;;;13.90;59.10;;;;;;5006404;28;45486;-74
2022/11/06 00:29:13;;;;;;;1.33;0.98;;;13.90;59.10;;;;;;5007114;28;45185;-75
2022/11/06 00:31:40;;;;;;;1.05;0.80;;;13.90;59.10;;;;;;5007274;28;45363;-75
2022/11/06 00:34:09;;;;;;;1.42;1.33;;;13.80;59.00;;;;;;5007224;28;45393;-75
2022/11/06 00:36:36;;;;;;;0.80;0.80;;;13.80;59.00;;;;;;5007004;28;45235;-74
2022/11/06 00:39:03;;;;;;;2.85;1.30;;;13.80;59.00;;;;;;5006981;28;45252;-74
2022/11/06 00:41:30;;;;;;;1.08;0.98;;;13.80;59.00;;;;;;5006840;28;45301;-75
2022/11/06 00:43:58;;;;;;;0.88;0.88;;;13.80;59.00;;;;;;5007041;28;45297;-75
2022/11/06 00:46:25;;;;;;;1.10;1.00;;;13.80;59.00;;;;;;5006740;28;45501;-75
2022/11/06 00:48:52;;;;;;;1.15;1.00;;;13.80;59.00;;;;;;5007018;28;45199;-75
2022/11/06 00:51:21;;;;;;;1.63;1.08;;;13.80;59.00;;;;;;5006875;28;45339;-75
2022/11/06 00:53:48;;;;;;;1.25;0.95;;;13.80;59.00;;;;;;5006963;28;45442;-75
2022/11/06 00:56:16;;;;;;;1.02;1.00;;;13.70;58.90;;;;;;5006508;28;45348;-75
2022/11/06 00:58:43;;;;;;;1.05;0.98;;;13.70;58.90;;;;;;5006756;28;45284;-74
2022/11/06 01:01:11;;;;;;;0.95;0.95;;;13.70;58.90;;;;;;5006702;28;45300;-75
2022/11/06 01:03:38;;;;;;;2.10;1.08;;;13.70;58.90;;;;;;5006685;28;45390;-75
2022/11/06 01:06:06;;;;;;;0.90;0.90;;;13.70;58.90;;;;;;5006312;28;46388;-75
2022/11/06 01:08:35;;;;;;;2.10;1.00;;;13.70;58.90;;;;;;5006658;28;45254;-74
2022/11/06 01:11:09;;;;;;;0.80;0.80;;;13.70;58.90;;;;;;5005962;28;45379;-75
2022/11/06 01:13:35;;;;;;;1.20;1.10;;;13.70;58.90;;;;;;5005977;28;45407;-75
2022/11/06 01:16:04;;;;;;;0.82;0.80;;;13.70;58.90;;;;;;5006168;28;45443;-75
2022/11/06 01:18:31;;;;;;;2.00;0.90;;;13.70;58.90;;;;;;5006448;28;45205;-75
2022/11/06 01:20:59;;;;;;;1.83;0.82;;;13.70;58.90;;;;;;5006700;28;45270;-75
2022/11/06 01:23:25;;;;;;;0.98;0.70;;;13.60;59.40;;;;;;5006633;28;45478;-75
2022/11/06 01:25:58;;;;;;;1.08;0.95;;;13.60;58.90;;;;;;5006326;28;45450;-74
2022/11/06 01:28:25;;;;;;;1.10;1.00;;;13.60;58.90;;;;;;5006269;28;45359;-75
2022/11/06 01:30:52;;;;;;;0.93;0.93;;;13.60;58.90;;;;;;5009794;28;45310;-76
2022/11/06 01:33:19;;;;;;;1.10;1.00;;;13.60;58.90;;;;;;5010081;28;45505;-75
2022/11/06 01:35:46;;;;;;;1.30;1.20;;;13.60;58.90;;;;;;5009419;28;46400;-74
2022/11/06 01:38:12;;;;;;;1.27;1.10;;;13.60;58.90;;;;;;5009516;28;45255;-75
2022/11/06 01:40:40;;;;;;;0.98;0.90;;;13.60;58.90;;;;;;5009555;28;45396;-75
2022/11/06 01:43:11;;;;;;;0.82;0.82;;;13.50;58.80;;;;;;5009636;28;45240;-75
2022/11/06 01:45:39;;;;;;;1.50;1.00;;;13.50;58.80;;;;;;5009477;28;46898;-75
2022/11/06 01:48:06;;;;;;;0.70;0.70;;;13.50;58.80;;;;;;5009446;28;45306;-75
2022/11/06 01:50:33;;;;;;;0.88;0.88;;;13.50;58.80;;;;;;5009352;28;45274;-75
2022/11/06 01:53:01;;;;;;;1.17;1.08;;;13.50;58.80;;;;;;5009552;28;45398;-75
2022/11/06 01:55:29;;;;;;;0.80;0.80;;;13.50;58.90;;;;;;5009429;28;46814;-74
2022/11/06 01:57:56;;;;;;;0.70;0.70;;;13.50;58.80;;;;;;5009069;28;45259;-75
2022/11/06 02:00:25;;;;;;;1.02;0.75;;;13.40;58.90;;;;;;5008629;28;45299;-74
2022/11/06 02:02:52;;;;;;;0.88;0.88;;;13.40;58.80;;;;;;5008670;28;45286;-74
2022/11/06 02:05:19;;;;;;;1.02;0.93;;;13.40;58.80;;;;;;5009213;28;46416;-75
2022/11/06 02:07:46;;;;;;;0.90;0.90;;;13.40;58.80;;;;;;5009326;28;45391;-74
2022/11/06 02:10:13;;;;;;;1.00;0.90;;;13.40;58.80;;;;;;5009506;28;45251;-76
2022/11/06 02:12:54;;;;;;;0.80;0.80;;;13.40;58.80;;;;;;5009406;28;45286;-75
2022/11/06 02:15:28;;;;;;;1.00;0.88;;;13.40;59.40;;;;;;5008811;28;45371;-75
2022/11/06 02:18:30;;;;;;;1.00;1.00;;;13.40;58.80;;;;;;5008847;28;45356;-75
2022/11/06 02:21:25;;;;;;;2.20;1.20;;;13.40;58.80;;;;;;4984847;28;45360;-75
2022/11/06 02:24:14;;;;;;;1.10;0.98;;;13.40;58.80;;;;;;4985897;28;45293;-75
2022/11/06 02:26:55;;;;;;;1.00;1.00;;;13.30;58.70;;;;;;5008881;28;45282;-75
2022/11/06 02:29:25;;;;;;;0.73;0.73;;;13.30;58.70;;;;;;5008967;28;45246;-75
2022/11/06 02:31:55;;;;;;;1.13;1.00;;;13.30;58.70;;;;;;5008827;28;45310;-75
2022/11/06 02:34:22;;;;;;;3.30;1.05;;;13.30;58.80;;;;;;5009173;28;45222;-74
2022/11/06 02:36:51;;;;;;;0.80;0.80;;;13.30;58.70;;;;;;5008015;28;45691;-75
2022/11/06 02:39:19;;;;;;;0.90;0.88;;;13.30;58.80;;;;;;5008010;28;45425;-75
2022/11/06 02:41:46;;;;;;;1.00;1.00;;;13.30;58.70;;;;;;5008709;28;45258;-75
2022/11/06 02:44:17;;;;;;;0.75;0.75;;;13.20;58.70;;;;;;5008734;28;45528;-75
2022/11/06 02:46:46;;;;;;;1.27;1.17;;;13.20;58.70;;;;;;5008654;28;46656;-75
2022/11/06 02:49:14;;;;;;;1.05;0.98;;;13.20;58.70;;;;;;5008453;28;45300;-75
2022/11/06 02:51:43;;;;;;;1.05;1.00;;;13.20;58.70;;;;;;5008777;28;45311;-75
2022/11/06 02:54:10;;;;;;;0.85;0.85;;;13.20;58.70;;;;;;5008900;28;45192;-75
2022/11/06 02:56:38;;;;;;;1.10;1.00;;;13.20;58.70;;;;;;5008185;28;46402;-75
2022/11/06 02:59:06;;;;;;;1.35;1.25;;;13.20;58.70;;;;;;5008251;28;45433;-75
2022/11/06 03:01:36;;;;;;;1.20;0.90;;;13.20;58.70;;;;;;5008276;28;45276;-75
2022/11/06 03:04:04;;;;;;;0.68;0.68;;;13.10;58.60;;;;;;5008376;28;45323;-75
2022/11/06 03:06:32;;;;;;;0.73;0.73;;;13.10;58.70;;;;;;5008305;28;46825;-75
2022/11/06 03:09:02;;;;;;;1.00;0.90;;;13.10;58.60;;;;;;5008202;28;45337;-75
2022/11/06 03:11:30;;;;;;;1.20;0.73;;;13.10;58.60;;;;;;5008230;28;45276;-75
2022/11/06 03:13:58;;;;;;;1.13;1.08;;;13.10;58.70;;;;;;5008305;28;45276;-75
2022/11/06 03:16:29;;;;;;;1.77;0.93;;;13.10;58.70;;;;;;5008234;28;46376;-75
2022/11/06 03:19:02;;;;;;;0.80;0.80;;;13.10;58.70;;;;;;5008034;28;45280;-75
2022/11/06 03:21:32;;;;;;;1.45;0.90;;;13.10;58.60;;;;;;5008019;28;45263;-75
2022/11/06 03:24:03;;;;;;;1.45;1.02;;;13.10;58.60;;;;;;5008433;28;45358;-75
2022/11/06 03:26:32;;;;;;;1.15;1.00;;;13.00;59.10;;;;;;5007722;28;45473;-75
2022/11/06 03:29:01;;;;;;;1.70;0.80;;;13.00;58.60;;;;;;5007818;28;45284;-75
2022/11/06 03:31:31;;;;;;;1.15;1.05;;;13.00;58.60;;;;;;5007963;28;45188;-74
2022/11/06 03:34:01;;;;;;;0.98;0.88;;;13.00;58.60;;;;;;5007391;28;45461;-75
2022/11/06 03:36:30;;;;;;;0.90;0.90;;;13.00;58.60;;;;;;5007014;28;45638;-75
2022/11/06 03:38:59;;;;;;;1.00;0.85;;;13.00;58.60;;;;;;5007650;28;45349;-74
2022/11/06 03:41:27;;;;;;;0.82;0.82;;;13.00;58.60;;;;;;5007704;28;45200;-75
2022/11/06 03:43:55;;;;;;;0.85;0.85;;;12.90;58.60;;;;;;5007963;28;45172;-75
2022/11/06 03:46:23;;;;;;;1.35;0.98;;;12.90;58.60;;;;;;5007373;28;45540;-74
2022/11/06 03:48:52;;;;;;;1.08;1.08;;;12.90;59.10;;;;;;5007664;28;45278;-75
2022/11/06 03:51:21;;;;;;;0.80;0.80;;;12.90;58.50;;;;;;5007373;28;45339;-74
2022/11/06 03:53:49;;;;;;;1.00;0.90;;;12.90;58.60;;;;;;5007404;28;45231;-75
2022/11/06 03:56:17;;;;;;;0.73;0.73;;;12.90;58.60;;;;;;5007483;28;45245;-75
2022/11/06 03:58:45;;;;;;;0.93;0.85;;;12.90;58.60;;;;;;5007259;28;45244;-75
2022/11/06 04:01:13;;;;;;;0.70;0.70;;;12.90;58.60;;;;;;5007432;28;45272;-75
2022/11/06 04:03:41;;;;;;;1.17;1.05;;;12.90;58.60;;;;;;5007562;28;45283;-75
2022/11/06 04:06:10;;;;;;;0.70;0.70;;;12.90;58.60;;;;;;5007190;28;47050;-75
2022/11/06 04:14:08;;;;;;;1.13;0.90;;;12.80;58.50;;;;;;5007883;28;45295;-75
2022/11/06 04:16:36;;;;;;;1.10;1.02;;;12.80;58.50;;;;;;5006999;28;46318;-74
2022/11/06 04:19:03;;;;;;;1.10;1.00;;;12.80;58.50;;;;;;5006959;28;45199;-75
2022/11/06 04:21:39;;;;;;;0.93;0.90;;;12.80;58.60;;;;;;5007279;28;45272;-75
2022/11/06 04:27:11;;;;;;;2.38;1.05;;;12.80;58.50;;;;;;5004526;28;45828;-75
2022/11/06 04:29:45;;;;;;;1.20;0.90;;;12.80;58.50;;;;;;5006975;28;45419;-76
2022/11/06 04:32:14;;;;;;;0.82;0.82;;;12.80;58.50;;;;;;5007205;28;45287;-75
2022/11/06 04:34:45;;;;;;;0.82;0.82;;;12.80;58.50;;;;;;5007286;28;45394;-75
2022/11/06 04:37:14;;;;;;;1.15;1.10;;;12.70;58.40;;;;;;5006682;28;46521;-75
2022/11/06 04:39:44;;;;;;;1.15;0.95;;;12.70;58.40;;;;;;5007003;28;45256;-75
2022/11/06 04:42:13;;;;;;;0.98;0.98;;;12.70;58.40;;;;;;5007042;28;45323;-75
2022/11/06 04:44:41;;;;;;;1.10;1.00;;;12.70;58.40;;;;;;5007134;28;45281;-75
2022/11/06 04:47:09;;;;;;;1.00;1.00;;;12.70;58.40;;;;;;5006715;28;45223;-75
2022/11/06 04:49:37;;;;;;;0.75;0.75;;;12.70;58.40;;;;;;5006941;28;45532;-75
2022/11/06 04:52:06;;;;;;;1.10;1.08;;;12.70;58.40;;;;;;5006787;28;45303;-75
2022/11/06 04:54:33;;;;;;;0.80;0.80;;;12.60;58.40;;;;;;5006228;28;45261;-75
2022/11/06 04:57:01;;;;;;;0.90;0.90;;;12.60;58.40;;;;;;5006303;28;46539;-75
2022/11/06 04:59:28;;;;;;;0.82;0.82;;;12.60;58.40;;;;;;5006781;28;45322;-74
2022/11/06 05:01:55;;;;;;;0.90;0.90;;;12.60;58.40;;;;;;5006642;28;45423;-75
2022/11/06 05:04:22;;;;;;;0.93;0.93;;;12.60;59.00;;;;;;5008252;28;45395;-75
2022/11/06 05:06:49;;;;;;;1.10;1.00;;;12.60;58.40;;;;;;5009857;28;46564;-75
2022/11/06 05:09:17;;;;;;;0.73;0.73;;;12.60;59.00;;;;;;5010168;28;45362;-75
2022/11/06 05:11:44;;;;;;;1.40;1.10;;;12.60;58.40;;;;;;5010105;28;45299;-75
2022/11/06 05:14:12;;;;;;;0.90;0.85;;;12.60;58.40;;;;;;5010075;28;45422;-75
2022/11/06 05:16:39;;;;;;;1.08;1.00;;;12.50;58.40;;;;;;5009819;28;46406;-75
2022/11/06 05:19:06;;;;;;;1.33;1.23;;;12.50;58.40;;;;;;5009858;28;45248;-76
2022/11/06 05:24:17;;;;;;;1.00;0.60;;;12.50;58.40;;;;;;5007411;28;45276;-75
2022/11/06 05:26:44;;;;;;;1.10;0.90;;;12.50;58.40;;;;;;5009595;28;47006;-75
2022/11/06 05:29:13;;;;;;;1.00;0.90;;;12.50;59.00;;;;;;5009655;28;45232;-76
2022/11/06 05:31:40;;;;;;;1.73;0.95;;;12.50;58.40;;;;;;5009976;28;45247;-75
2022/11/06 05:34:07;;;;;;;1.85;1.20;;;12.40;58.30;;;;;;5010054;28;45359;-75
2022/11/06 05:36:34;;;;;;;0.90;0.90;;;12.50;58.40;;;;;;5009531;28;45935;-75
2022/11/06 05:39:01;;;;;;;1.02;0.95;;;12.40;58.30;;;;;;5009482;28;45320;-75
2022/11/06 05:41:28;;;;;;;1.30;1.00;;;12.40;58.30;;;;;;5009588;28;45245;-75
2022/11/06 05:43:56;;;;;;;1.10;1.00;;;12.50;58.40;;;;;;5008975;28;45415;-75
2022/11/06 05:46:24;;;;;;;0.90;0.90;;;12.40;58.30;;;;;;5009243;28;47582;-75
2022/11/06 05:48:51;;;;;;;1.02;0.90;;;12.40;58.30;;;;;;5009661;28;45236;-75
2022/11/06 05:51:19;;;;;;;0.80;0.80;;;12.40;58.30;;;;;;5009606;28;45248;-75
2022/11/06 05:53:45;;;;;;;1.10;1.10;;;12.40;58.30;;;;;;5009797;28;45408;-75
2022/11/06 05:56:12;;;;;;;1.48;0.90;;;12.40;58.80;;;;;;5009129;28;46488;-75
2022/11/06 05:58:39;;;;;;;0.70;0.70;;;12.40;58.30;;;;;;5009098;28;45227;-75
2022/11/06 06:01:06;;;;;;;0.70;0.70;;;12.30;58.20;;;;;;5009131;28;45323;-75
2022/11/06 06:03:35;;;;;;;0.80;0.80;;;12.30;58.20;;;;;;5008668;28;45180;-76
2022/11/06 06:06:01;;;;;;;0.82;0.82;;;12.40;58.30;;;;;;5008103;28;47340;-75
2022/11/06 06:08:29;;;;;;;0.93;0.93;;;12.30;58.20;;;;;;5008327;28;45316;-75
2022/11/06 06:10:55;;;;;;;1.10;1.00;;;12.30;58.30;;;;;;5008315;28;45440;-75
2022/11/06 06:13:22;;;;;;;1.05;0.98;;;12.30;58.80;;;;;;5008495;28;45386;-75
2022/11/06 06:15:49;;;;;;;1.90;0.90;;;12.30;58.20;;;;;;5007655;28;47350;-75
2022/11/06 06:18:16;;;;;;;1.20;0.87;;;12.30;58.20;;;;;;5008035;28;45288;-74
2022/11/06 06:20:45;;;;;;;0.80;0.80;;;12.30;58.20;;;;;;5008045;28;45306;-75
2022/11/06 06:23:11;;;;;;;1.30;0.87;;;12.20;58.10;;;;;;5008506;28;45473;-74
2022/11/06 06:25:38;;;;;;;1.25;0.93;;;12.20;58.20;;;;;;5007676;28;46368;-75
2022/11/06 06:28:05;;;;;;;0.68;0.68;;;12.20;58.70;;;;;;5007181;28;45253;-75
2022/11/06 06:30:34;;;;;;;1.85;0.70;;;12.20;58.10;;;;;;5008017;28;45407;-75
2022/11/06 06:33:03;;;;;;;0.70;0.70;;;12.20;58.10;;;;;;5008037;28;45291;-76
2022/11/06 06:35:30;;;;;;;0.88;0.82;;;12.20;58.20;;;;;;5007598;28;45219;-75
2022/11/06 06:37:58;;;;;;;1.00;1.00;;;12.20;58.20;;;;;;5007511;28;45320;-76
2022/11/06 06:40:25;;;;;;;1.40;0.98;;;12.20;58.20;;;;;;5007763;28;45260;-75
2022/11/06 06:42:55;;;;;;;1.02;1.00;;;12.20;58.20;;;;;;5007660;28;45181;-75
2022/11/06 06:45:22;;;;;;;0.93;0.93;;;12.20;58.20;;;;;;5007255;28;47191;-76
2022/11/06 06:47:49;;;;;;;0.93;0.88;;;12.20;58.10;;;;;;5007083;28;45292;-75
2022/11/06 06:50:16;;;;;;;2.00;0.88;;;12.20;58.10;;;;;;5007682;28;45299;-75
2022/11/06 06:52:43;;;;;;;0.80;0.80;;;12.10;58.10;;;;;;5007653;28;45676;-75
2022/11/06 06:55:11;;;;;;;0.93;0.90;;;12.20;58.10;;;;;;5007055;28;45724;-75
2022/11/06 06:57:38;;;;;;;0.90;0.90;;;12.20;58.10;;;;;;5007183;28;45326;-75
2022/11/06 07:00:06;;;;;;;1.07;0.97;;;12.10;58.00;;;;;;5007288;28;44736;-75
2022/11/06 07:02:33;;;;;;;0.87;0.87;;;12.10;58.00;;;;;;4967649;28;1150151;-75
2022/11/06 07:05:00;;;;;;;0.90;0.90;;;12.20;58.00;;;;;;5007914;28;46420;-75
2022/11/06 07:07:27;;;;;;;1.00;0.90;;;12.10;58.00;;;;;;5007967;28;45282;-74
2022/11/06 07:09:54;;;;;;;0.90;0.90;;;12.10;58.60;;;;;;5008267;28;45413;-75
2022/11/06 07:12:22;;;;;;;0.70;0.70;;;12.10;58.00;;;;;;5007628;28;45319;-75
2022/11/06 07:14:49;;;;;;;1.10;1.03;;;12.10;58.00;;;;;;5007933;28;46441;-75
2022/11/06 07:17:16;;;;;;;1.13;1.00;;;12.10;58.00;;;;;;5008223;28;45223;-75
2022/11/06 07:19:43;;;;;;;0.80;0.80;;;12.10;58.00;;;;;;5008325;28;45247;-76
2022/11/06 07:22:10;;;;;;;0.80;0.80;;;12.10;58.00;;;;;;5008193;28;45468;-75
2022/11/06 07:24:37;;;;;;;1.07;1.03;;;12.10;58.60;;;;;;5007843;28;46466;-75
2022/11/06 07:27:04;;;;;;;1.13;0.90;;;12.10;58.70;;;;;;5007117;28;45262;-75
2022/11/06 07:29:32;;;;;;;1.07;0.97;;;12.10;58.00;;;;;;5008212;28;45193;-75
2022/11/06 07:31:59;;;;;;;1.00;0.93;;;12.10;58.00;;;;;;5008108;28;45382;-75
2022/11/06 07:34:26;;;;;;;1.63;1.20;;;12.10;58.60;;;;;;5007937;28;46464;-75
2022/11/06 07:36:53;;;;;;;1.05;0.85;;;12.10;58.00;;;;;;5007832;28;45300;-75
2022/11/06 07:39:20;;;;;;;1.10;1.00;;;12.10;57.90;;;;;;5008099;28;45227;-75
2022/11/06 07:41:47;;;;;;;1.63;0.93;;;12.10;57.90;;;;;;5007974;28;45406;-76
2022/11/06 07:44:14;;;;;;;1.67;1.00;;;12.10;57.90;;;;;;5007982;28;47313;-75
2022/11/06 07:46:42;;;;;;;0.90;0.90;;;12.10;57.90;;;;;;5007502;28;45254;-75
2022/11/06 07:49:10;;;;;;;1.00;1.00;;;12.00;58.50;;;;;;5007775;28;45291;-75
2022/11/06 07:51:36;;;;;;;0.80;0.80;;;12.10;58.00;;;;;;5007946;28;45248;-75
2022/11/06 07:54:03;;;;;;;0.90;0.90;;;12.10;57.90;;;;;;5007516;28;45226;-75
2022/11/06 07:56:30;;;;;;;1.20;0.90;;;12.10;57.90;;;;;;5006628;28;45281;-75
2022/11/06 07:58:57;;;;;;;1.02;1.02;;;12.10;58.50;;;;;;5007395;28;45364;-75
2022/11/06 08:01:24;;;;;;;1.08;1.00;;;12.10;57.80;;;;;;5007600;28;45465;-75
2022/11/06 08:03:52;;;;;;;1.67;0.73;;;12.10;57.80;;;;;;5007455;28;46877;-75
2022/11/06 08:06:19;;;;;;;1.67;1.10;;;12.10;57.80;;;;;;5007309;28;45231;-75
2022/11/06 08:08:46;;;;;;;2.17;1.30;;;12.10;57.80;;;;;;5007428;28;45299;-75
2022/11/06 08:11:13;;;;;;;0.90;0.90;;;12.10;57.80;;;;;;5007647;28;45281;-75
2022/11/06 08:13:40;;;;;;;1.27;1.17;;;12.10;58.40;;;;;;5007088;28;46820;-75
2022/11/06 08:16:08;;;;;;;1.27;1.17;;;12.10;57.80;;;;;;5007451;28;45264;-75
2022/11/06 08:18:35;;;;;;;1.27;0.87;;;12.10;57.90;;;;;;5007324;28;45374;-75
2022/11/06 08:21:03;;;;;;;0.80;0.80;;;12.10;57.90;;;;;;5007395;28;45295;-75
2022/11/06 08:23:31;;;;;;;1.43;1.20;;;12.10;57.90;;;;;;5007090;28;46675;-75
2022/11/06 08:25:58;;;;;;;1.00;0.90;;;12.10;57.90;;;;;;5007056;28;45195;-75
2022/11/06 08:28:25;;;;;;;1.40;1.30;;;12.10;57.90;;;;;;5007220;28;45383;-75
2022/11/06 08:30:52;;;;;;;1.58;1.00;;;12.10;57.90;;;;;;5007293;28;45319;-75
2022/11/06 08:33:19;;;;;;;0.90;0.90;;;12.10;57.90;;;;;;5006742;28;47250;-75
2022/11/06 08:35:46;;;;;;;1.10;1.00;;;12.10;57.90;;;;;;5007047;28;45161;-75
2022/11/06 08:38:14;;;;;;;1.10;1.00;;;12.10;58.40;;;;;;5006886;28;45256;-75
2022/11/06 08:40:41;;;;;;;0.80;0.80;;;12.10;57.80;;;;;;5006550;28;45364;-75
2022/11/06 08:43:11;;;;;;;1.10;1.10;;;12.10;57.80;;;;;;5007135;28;45309;-75
2022/11/06 08:45:38;;;;;;;1.37;1.27;;;12.10;57.80;;;;;;5006836;28;45308;-76
2022/11/06 08:48:06;;;;;;;1.17;1.07;;;12.10;57.80;;;;;;5006921;28;45287;-75
2022/11/06 08:50:32;;;;;;;1.73;1.20;;;12.10;57.80;;;;;;5006938;28;45465;-75
2022/11/06 08:53:03;;;;;;;1.47;1.10;;;12.10;57.80;;;;;;5006643;28;45363;-75
2022/11/06 08:55:35;;;;;;;1.30;1.20;;;12.10;57.80;;;;;;5006619;28;45272;-75
2022/11/06 08:58:02;;;;;;;1.00;1.00;;;12.20;57.90;;;;;;5006850;28;45247;-75
2022/11/06 09:00:29;;;;;;;1.73;1.30;;;12.20;57.90;;;;;;5006851;28;45285;-75
2022/11/06 09:02:59;;;;;;;1.43;1.33;;;12.20;57.90;;;;;;5006117;28;45252;-75
2022/11/06 09:05:26;;;;;;;1.50;1.40;;;12.20;57.90;;;;;;5006318;28;45219;-75
2022/11/06 09:07:53;;;;;;;2.07;1.30;;;12.20;57.90;;;;;;5006652;28;45203;-75
2022/11/06 09:10:20;;;;;;;1.70;1.10;;;12.20;57.90;;;;;;5006858;28;45299;-75
2022/11/06 09:12:48;;;;;;;1.20;1.10;;;12.20;57.90;;;;;;5006696;28;45289;-76
2022/11/06 09:15:15;;;;;;;1.43;1.30;;;12.20;57.80;;;;;;5006529;28;45247;-75
2022/11/06 09:17:43;;;;;;;1.27;1.17;;;12.30;57.90;;;;;;5006630;28;45260;-76
2022/11/06 09:20:10;;;;;;;1.45;1.30;;;12.30;57.80;;;;;;5006778;28;45226;-75
2022/11/06 09:22:38;;;;;;;1.27;1.17;;;12.30;57.80;;;;;;5006145;28;46218;-75
2022/11/06 09:25:05;;;;;;;1.20;1.10;;;12.30;57.80;;;;;;5006480;28;45201;-75
2022/11/06 09:27:33;;;;;;;1.27;1.17;;;12.30;57.90;;;;;;5005924;28;45237;-75
2022/11/06 09:30:01;;;;;;;1.40;1.30;;;12.30;57.90;;;;;;5006014;28;45333;-75
2022/11/06 09:32:28;;;;;;;1.20;1.10;;;12.30;57.90;;;;;;5006240;28;46406;-75
2022/11/06 09:34:55;;;;;;;1.33;1.23;;;12.30;57.90;;;;;;5006213;28;45267;-76
2022/11/06 09:37:21;;;;;;;1.33;1.23;;;12.40;57.90;;;;;;5006632;28;45331;-75
2022/11/06 09:39:49;;;;;;;1.17;1.15;;;12.40;57.90;;;;;;5006697;28;45232;-76
2022/11/06 09:42:20;;;;;;;0.90;0.90;;;12.40;58.00;;;;;;5006040;28;46871;-75
2022/11/06 09:44:53;;;;;;;1.00;1.00;;;12.40;58.00;;;;;;5006201;28;45304;-75
2022/11/06 09:47:23;;;;;;;1.07;0.97;;;12.40;58.00;;;;;;5006330;28;45207;-76
2022/11/06 09:49:50;;;;;;;1.23;1.10;;;12.40;58.10;;;;;;5006828;28;45380;-75
2022/11/06 09:52:20;;;;;;;1.10;1.00;;;12.40;58.00;;;;;;5009594;28;45496;-75
2022/11/06 09:54:47;;;;;;;1.20;1.10;;;12.50;58.10;;;;;;5009356;28;45173;-76
2022/11/06 09:57:25;;;;;;;1.27;1.17;;;12.50;57.90;;;;;;5009662;28;45208;-75
2022/11/06 09:59:52;;;;;;;1.90;1.10;;;12.50;58.10;;;;;;5009519;28;45271;-75
2022/11/06 10:02:27;;;;;;;1.02;0.98;;;12.60;58.00;;;;;;5009786;28;45295;-77
2022/11/06 10:04:59;;;;;;;3.43;1.20;;;12.60;58.10;;;;;;5009273;28;45250;-75
2022/11/06 10:07:27;;;;;;;1.38;1.20;;;12.70;58.70;;;;;;5009295;28;45538;-75
2022/11/06 10:09:54;;;;;;;0.93;0.93;;;12.80;58.00;;;;;;5009586;28;45378;-73
2022/11/06 10:12:26;;;;;;;1.25;1.00;;;12.80;58.20;;;;;;5009031;28;45623;-73
2022/11/06 10:14:58;;;;;;;1.10;1.10;;;12.90;58.30;;;;;;5009015;28;46230;-73
2022/11/06 10:17:33;;;;;;;2.67;1.20;;;12.90;58.50;;;;;;5009047;28;45302;-73
2022/11/06 10:20:04;;;;;;;1.25;1.20;;;13.00;58.30;;;;;;5009080;28;45313;-72
2022/11/06 10:22:33;;;;;;;3.20;1.20;;;13.10;58.20;;;;;;5008856;28;46791;-76
2022/11/06 10:25:01;;;;;;;2.58;1.20;;;13.10;58.10;;;;;;5008949;28;45339;-75
2022/11/06 10:27:35;;;;;;;1.20;1.10;;;13.20;58.00;;;;;;5008937;28;45266;-75
2022/11/06 10:30:05;;;;;;;0.90;0.90;;;13.30;57.80;;;;;;5009393;28;45417;-77
2022/11/06 10:32:52;;;;;;;3.63;1.70;;;13.30;58.30;;;;;;5008553;28;45237;-76
2022/11/06 10:35:20;;;;;;;6.80;1.25;;;13.40;58.10;;;;;;5008981;28;45129;-72
2022/11/06 10:37:50;;;;;;;7.63;1.40;;;13.50;57.60;;;;;;5009170;28;45293;-74
2022/11/06 10:40:19;;;;;;;3.25;1.25;;;13.60;57.40;;;;;;5008770;28;45392;-78
2022/11/06 10:42:47;;;;;;;5.40;1.33;;;13.70;57.60;;;;;;5007456;28;45587;-72
2022/11/06 10:45:15;;;;;;;5.85;1.50;;;13.90;57.90;;;;;;5008236;28;45241;-72
2022/11/06 10:47:45;;;;;;;2.72;1.25;;;14.00;57.20;;;;;;5008864;28;45410;-71
2022/11/06 10:50:13;;;;;;;4.82;3.40;;;14.00;57.20;;;;;;5008908;28;45275;-72
2022/11/06 10:52:53;;;;;;;4.57;1.40;;;14.10;56.60;;;;;;5008313;28;46332;-77
2022/11/06 10:55:42;;;;;;;6.57;1.75;;;14.20;56.90;;;;;;5008755;28;45313;-73
2022/11/06 10:58:09;;;;;;;5.03;2.70;;;14.30;57.00;;;;;;5010154;28;45385;-80
2022/11/06 11:00:37;;;;;;;7.88;4.95;;;14.40;56.20;;;;;;5008967;28;45343;-81
2022/11/06 11:03:06;;;;;;;6.63;3.20;;;14.50;55.90;;;;;;5007622;28;46392;-80
2022/11/06 11:05:38;;;;;;;5.20;3.20;;;14.60;55.80;;;;;;5008791;28;45332;-80
2022/11/06 11:08:05;;;;;;;2.90;2.30;;;14.60;55.50;;;;;;5008879;28;45267;-81
2022/11/06 11:10:34;;;;;;;4.60;2.45;;;14.50;55.60;;;;;;5009187;28;45544;-81
2022/11/06 11:13:01;;;;;;;7.13;2.40;;;14.40;56.40;;;;;;5008534;28;45209;-80
2022/11/06 11:15:28;;;;;;;3.58;2.17;;;14.40;56.10;;;;;;5008461;28;45289;-80
2022/11/06 11:18:15;;;;;;;4.35;2.08;;;14.30;56.20;;;;;;5008533;28;45377;-80
2022/11/06 11:20:43;;;;;;;2.63;2.17;;;14.20;56.40;;;;;;5009108;28;45283;-81
2022/11/06 11:23:15;;;;;;;2.85;1.90;;;14.20;56.50;;;;;;5009690;28;45347;-83
2022/11/06 11:25:43;;;;;;;5.35;2.17;;;14.30;56.40;;;;;;5009059;28;45319;-74
2022/11/06 11:28:21;;;;;;;3.15;1.90;;;14.30;56.50;;;;;;5008375;28;45250;-73
2022/11/06 11:30:51;;;;;;;12.63;2.97;;;14.50;56.30;;;;;;5007971;28;45184;-73
2022/11/06 11:33:20;;;;;;;3.60;1.95;;;14.60;56.40;;;;;;5007717;28;46478;-76
2022/11/06 11:35:48;;;;;;;5.25;2.45;;;14.80;56.10;;;;;;5007703;28;45296;-75
2022/11/06 11:38:17;;;;;;;11.38;2.50;;;14.90;55.70;;;;;;5007982;28;45185;-75
2022/11/06 11:40:44;;;;;;;5.47;2.10;;;15.00;55.60;;;;;;5007908;28;45291;-73
2022/11/06 11:43:25;;;;;;;7.43;2.13;;;15.10;55.30;;;;;;5007585;28;46729;-71
2022/11/06 11:46:03;;;;;;;4.65;2.28;;;15.20;55.20;;;;;;5007347;28;45353;-71
2022/11/06 11:48:43;;;;;;;3.58;2.25;;;15.20;55.20;;;;;;5007838;28;45387;-72
2022/11/06 11:51:27;;;;;;;5.65;2.35;;;15.10;55.80;;;;;;5007705;28;45222;-71
2022/11/06 11:53:56;;;;;;;2.65;2.25;;;15.10;55.40;;;;;;5007598;28;46458;-75
2022/11/06 11:56:23;;;;;;;5.68;2.80;;;15.10;55.80;;;;;;5007487;28;45302;-72
2022/11/06 11:58:51;;;;;;;10.00;2.42;;;15.10;55.90;;;;;;5007763;28;45393;-77
2022/11/06 12:01:18;;;;;;;3.97;2.45;;;15.00;56.70;;;;;;5009031;28;45260;-77
2022/11/06 12:03:48;;;;;;;3.22;2.45;;;15.10;56.20;;;;;;5007832;28;45479;-76
2022/11/06 12:06:17;;;;;;;4.40;3.25;;;15.20;55.70;;;;;;5007718;28;45276;-76
2022/11/06 12:08:46;;;;;;;4.85;2.30;;;15.20;55.10;;;;;;5007165;28;45207;-76
2022/11/06 12:11:14;;;;;;;9.50;2.55;;;15.20;55.30;;;;;;5007108;28;45422;-76
2022/11/06 12:13:42;;;;;;;8.52;2.25;;;15.20;55.50;;;;;;5007600;28;45328;-77
2022/11/06 12:16:10;;;;;;;3.25;2.22;;;15.20;55.70;;;;;;5008479;28;45265;-87
2022/11/06 12:18:39;;;;;;;4.45;2.15;;;15.20;55.80;;;;;;5007783;28;45391;-77
2022/11/06 12:21:08;;;;;;;5.20;2.08;;;15.20;55.80;;;;;;5007693;28;45678;-81
2022/11/06 12:23:39;;;;;;;6.00;2.08;;;15.30;56.00;;;;;;5010991;28;46418;-74
2022/11/06 12:26:07;;;;;;;12.88;2.33;;;15.30;55.90;;;;;;5027437;28;45197;-78
2022/11/06 12:28:35;;;;;;;6.00;2.20;;;15.30;55.80;;;;;;5025673;28;45207;-75
2022/11/06 12:31:04;;;;;;;4.63;2.20;;;15.40;55.80;;;;;;5009975;28;45449;-78
2022/11/06 12:33:31;;;;;;;4.70;1.90;;;15.40;56.50;;;;;;5011316;28;47305;-75
2022/11/06 12:35:59;;;;;;;7.22;2.30;;;15.40;56.40;;;;;;5026969;28;45204;-72
2022/11/06 12:38:31;;;;;;;6.82;2.80;;;15.50;56.00;;;;;;5026799;28;45327;-79
2022/11/06 12:41:00;;;;;;;7.55;2.50;;;15.50;55.90;;;;;;5020910;28;45476;-72
2022/11/06 12:43:32;;;;;;;9.52;2.20;;;15.50;56.40;;;;;;5006752;28;46591;-76
2022/11/06 12:46:19;;;;;;;8.60;2.70;;;15.50;56.40;;;;;;5007312;28;45303;-75
2022/11/06 12:49:04;;;;;;;11.43;2.97;;;15.40;56.40;;;;;;5025257;28;45302;-74
2022/11/06 12:51:33;;;;;;;7.55;2.22;;;15.40;56.40;;;;;;5012807;28;45777;-71
2022/11/06 12:54:13;;;;;;;5.70;2.25;;;15.50;57.10;;;;;;5011801;28;46407;-73
2022/11/06 12:56:43;;;;;;;27.25;3.58;;;15.50;57.10;;;;;;5026381;28;45318;-74
2022/11/06 12:59:15;;;;;;;5.97;2.25;;;15.40;56.80;;;;;;5026801;28;45408;-73
2022/11/06 13:01:51;;;;;;;5.72;2.30;;;15.40;56.90;;;;;;5025668;28;45248;-73
2022/11/06 13:04:34;;;;;;;7.75;2.72;;;15.30;57.10;;;;;;5023471;28;45417;-73
2022/11/06 13:07:22;;;;;;;6.95;2.42;;;15.30;57.20;;;;;;5006291;28;45333;-76